Aérodrome :
LOGIN :

S'inscrire | Disclaimer

   EN    FR    IT 

 










Légende :    VFR   VFR Marginal   IFR   IFR Intensif   IFR Très Intensif
Visi : 
Plafond : 
>= 8 km
>= 3000ft
5 à 8 km
1000 à 3000 ft
1500m à 5 km
500 à 1000 ft
800 à 1500m
200 à 500 ft
< 800m
< 200 ft
Symboles :   Orages  Brouillard  Fortes neiges  Fortes précipitations  Vent > 20 kt
SIGMETs :   Divers  Orages  Givrage  Turbulence  Onde Orograph.  Cendres Volcan.







- Altitude de l'aérodrome : 18 ft
- Code IATA : AJA
- Voir les cartes d'approche


LFKJ - Ajaccio

DERNIER METAR :
  • 242130Z AUTO 05004KT CAVOK 18/15 Q1015 NOSIG

METARs EXPIRÉS :
  • 242100Z AUTO 05005KT 010V070 CAVOK 18/15 Q1016 NOSIG
  • 242030Z AUTO 03004KT 350V060 CAVOK 18/15 Q1016 NOSIG
  • 242000Z AUTO 03005KT 010V080 CAVOK 18/15 Q1015 NOSIG
  • 241930Z AUTO 05005KT 9999 FEW072 BKN100 BKN120 18/16 Q1015 NOSIG
  • 241900Z AUTO 07006KT 6000 -RA FEW043 OVC076 19/16 Q1015 NOSIG

TAF TAF LFKJ
Valide du 24 à 21h jusqu'au 25 à 21h UTC


242000Z 2421/2521 05008KT CAVOK
BECMG 2508/2510 24010KT FEW030CB
TEMPO 2511/2515 SCT040CB
PROB40
TEMPO 2511/2515 TS FEW030CB BKN080
BECMG 2518/2520 05008KT
ATIS : +33 4 95 23 59 85
Pas de NOTAMs connus pour ce terrain.



MET'MAP, la Météo Aéronautique d'un coup d'oeil ! - Copyright ORBIFLY Décembre 2007 - Disclaimer

ORBIFLY MET'MAP TEAM :

Programmation & Développement : Alexandra Zaïnal
Conception & Développement : Baudouin d'Aumeries
Co-Programmation & Développement : Marc-Olivier Méhu
Soutien technique & logistique : Manuel Goepfert

Contact : metmap@orbifly.com




SOURCES & CREDITS :

   NOAA